createdAt,value
2022-11-13T00:01:19.609Z,102292.84
2022-11-13T00:04:05.251Z,102297.25
2022-11-13T00:06:54.792Z,102294.59
2022-11-13T00:09:43.190Z,102293.69
2022-11-13T00:12:29.316Z,102290.06
2022-11-13T00:15:14.763Z,102286.50
2022-11-13T00:18:03.276Z,102283.91
2022-11-13T00:20:48.805Z,102286.50
2022-11-13T00:23:36.925Z,102285.66
2022-11-13T00:26:23.513Z,102293.56
2022-11-13T00:29:08.650Z,102274.88
2022-11-13T00:31:53.817Z,102273.09
2022-11-13T00:34:47.758Z,102273.09
2022-11-13T00:37:33.707Z,102281.94
2022-11-13T00:40:18.618Z,102276.72
2022-11-13T00:43:03.573Z,102279.34
2022-11-13T00:45:48.596Z,102281.13
2022-11-13T00:48:34.122Z,102280.41
2022-11-13T00:51:19.926Z,102275.06
2022-11-13T00:54:05.469Z,102270.69
2022-11-13T00:56:55.928Z,102272.41
2022-11-13T00:59:41.292Z,102265.25
2022-11-13T01:02:27.126Z,102259.88
2022-11-13T01:05:12.730Z,102264.25
2022-11-13T01:07:58.528Z,102251.03
2022-11-13T01:10:48.817Z,102247.47
2022-11-13T01:13:39.366Z,102244.81
2022-11-13T01:16:25.559Z,102243.00
2022-11-13T01:19:11.066Z,102235.88
2022-11-13T01:21:56.479Z,102239.38
2022-11-13T01:24:41.829Z,102243.81
2022-11-13T01:27:27.286Z,102240.34
2022-11-13T01:30:12.651Z,102234.97
2022-11-13T01:32:57.933Z,102239.44
2022-11-13T01:35:42.908Z,102235.03
2022-11-13T01:38:34.452Z,102232.31
2022-11-13T01:41:25.240Z,102230.41
2022-11-13T01:44:14.320Z,102225.09
2022-11-13T01:46:59.875Z,102223.28
2022-11-13T01:49:45.439Z,102227.81
2022-11-13T01:52:31.865Z,102226.06
2022-11-13T01:55:17.525Z,102209.22
2022-11-13T01:58:03.383Z,102217.91
2022-11-13T02:00:48.596Z,102209.22
2022-11-13T02:03:33.854Z,102209.31
2022-11-13T02:06:28.126Z,102210.06
2022-11-13T02:09:17.820Z,102208.38
2022-11-13T02:12:04.007Z,102202.09
2022-11-13T02:14:52.907Z,102203.78
2022-11-13T02:17:51.527Z,102199.38
2022-11-13T02:21:02.706Z,102201.03
2022-11-13T02:23:51.675Z,102198.31
2022-11-13T02:26:46.106Z,102193.88
2022-11-13T02:29:32.218Z,102201.94
2022-11-13T02:32:17.289Z,102193.97
2022-11-13T02:35:02.859Z,102200.97
2022-11-13T02:37:50.897Z,102191.09
2022-11-13T02:40:39.382Z,102192.09
2022-11-13T02:43:25.044Z,102188.56
2022-11-13T02:46:12.695Z,102189.38
2022-11-13T02:49:02.447Z,102194.63
2022-11-13T02:51:50.075Z,102194.63
2022-11-13T02:54:38.777Z,102179.63
2022-11-13T02:57:24.432Z,102168.97
2022-11-13T03:00:23.457Z,102170.69
2022-11-13T03:03:12.574Z,102160.06
2022-11-13T03:05:57.956Z,102149.44
2022-11-13T03:08:43.641Z,102145.84
2022-11-13T03:11:37.759Z,102152.91
2022-11-13T03:14:23.570Z,102153.97
2022-11-13T03:17:25.941Z,102152.28
2022-11-13T03:20:11.314Z,102149.69
2022-11-13T03:23:01.053Z,102155.78
2022-11-13T03:25:52.648Z,102157.53
2022-11-13T03:28:40.908Z,102161.19
2022-11-13T03:31:29.350Z,102163.78
2022-11-13T03:34:14.718Z,102182.34
2022-11-13T03:37:03.333Z,102178.78
2022-11-13T03:39:48.400Z,102176.13
2022-11-13T03:42:41.773Z,102174.31
2022-11-13T03:45:27.076Z,102174.31
2022-11-13T03:48:14.031Z,102169.97
2022-11-13T03:50:59.784Z,102172.56
2022-11-13T03:53:45.096Z,102172.56
2022-11-13T03:56:30.163Z,102162.78
2022-11-13T03:59:15.588Z,102168.09
2022-11-13T04:02:00.764Z,102161.09
2022-11-13T04:04:46.528Z,102151.28
2022-11-13T04:07:32.059Z,102152.16
2022-11-13T04:10:20.590Z,102148.63
2022-11-13T04:13:08.637Z,102146.16
2022-11-13T04:15:54.190Z,102139.13
2022-11-13T04:18:40.358Z,102139.84
2022-11-13T04:21:26.052Z,102142.63
2022-11-13T04:24:11.609Z,102139.00
2022-11-13T04:26:57.155Z,102143.47
2022-11-13T04:29:44.216Z,102139.84
2022-11-13T04:32:30.328Z,102140.78
2022-11-13T04:35:15.816Z,102143.50
2022-11-13T04:38:16.609Z,102145.34
2022-11-13T04:41:20.915Z,102145.28
2022-11-13T04:44:09.699Z,102134.59
2022-11-13T04:47:02.863Z,102139.06
2022-11-13T04:49:50.916Z,102139.13
2022-11-13T04:52:36.241Z,102136.56
2022-11-13T04:55:21.262Z,102137.38
2022-11-13T04:58:06.179Z,102139.16
2022-11-13T05:00:51.868Z,102142.63
2022-11-13T05:03:37.606Z,102139.97
2022-11-13T05:06:23.086Z,102139.28
2022-11-13T05:09:08.700Z,102134.84
2022-11-13T05:11:56.441Z,102135.66
2022-11-13T05:14:42.073Z,102126.88
2022-11-13T05:17:27.862Z,102125.94
2022-11-13T05:20:26.740Z,102136.50
2022-11-13T05:23:13.310Z,102137.53
2022-11-13T05:26:04.688Z,102123.28
2022-11-13T05:28:56.593Z,102127.69
2022-11-13T05:31:42.158Z,102129.41
2022-11-13T05:34:27.269Z,102124.16
2022-11-13T05:37:13.172Z,102126.75
2022-11-13T05:40:03.195Z,102124.03
2022-11-13T05:42:48.683Z,102125.84
2022-11-13T05:45:34.288Z,102125.78
2022-11-13T05:48:21.761Z,102126.63
2022-11-13T05:51:08.256Z,102120.53
2022-11-13T05:53:55.639Z,102116.06
2022-11-13T05:56:41.154Z,102115.31
2022-11-13T05:59:26.468Z,102112.59
2022-11-13T06:02:18.401Z,102116.06
2022-11-13T06:05:03.970Z,102118.78
2022-11-13T06:07:51.701Z,102109.88
2022-11-13T06:10:37.292Z,102114.31
2022-11-13T06:13:22.953Z,102107.41
2022-11-13T06:16:10.373Z,102108.41
2022-11-13T06:18:59.511Z,102098.00
2022-11-13T06:21:51.172Z,102100.84
2022-11-13T06:24:42.414Z,102099.56
2022-11-13T06:27:31.654Z,102098.84
2022-11-13T06:30:17.153Z,102095.59
2022-11-13T06:33:02.539Z,102094.06
2022-11-13T06:35:47.941Z,102098.50
2022-11-13T06:38:36.445Z,102089.56
2022-11-13T06:41:26.357Z,102093.81
2022-11-13T06:44:12.327Z,102096.44
2022-11-13T06:47:00.637Z,102093.59
2022-11-13T06:49:45.829Z,102088.66
2022-11-13T06:52:30.990Z,102087.97
2022-11-13T06:58:46.453Z,102076.91
2022-11-13T07:01:31.629Z,102082.22
2022-11-13T07:04:17.158Z,102081.38
2022-11-13T07:07:05.427Z,102077.97
2022-11-13T07:09:50.731Z,102070.31
2022-11-13T07:12:36.255Z,102072.09
2022-11-13T07:15:21.430Z,102081.81
2022-11-13T07:18:06.875Z,102074.91
2022-11-13T07:20:51.978Z,102069.59
2022-11-13T07:23:43.071Z,102068.69
2022-11-13T07:26:31.792Z,102066.03
2022-11-13T07:32:49.790Z,102059.31
2022-11-13T07:35:39.363Z,102057.44
2022-11-13T07:39:00.361Z,102045.91
2022-11-13T07:41:59.841Z,102050.66
2022-11-13T07:44:55.610Z,102051.41
2022-11-13T07:51:13.274Z,102060.06
2022-11-13T07:54:01.358Z,102064.50
2022-11-13T07:56:47.554Z,102062.91
2022-11-13T07:59:34.905Z,102067.03
2022-11-13T08:06:31.056Z,102063.88
2022-11-13T08:12:57.840Z,102072.53
2022-11-13T08:16:22.408Z,102064.63
2022-11-13T08:19:12.550Z,102060.16
2022-11-13T08:25:42.773Z,102059.19
2022-11-13T08:29:19.674Z,102060.03
2022-11-13T08:36:04.163Z,102056.59
2022-11-13T08:50:31.139Z,102055.69
2022-11-13T08:53:19.161Z,102054.69
2022-11-13T08:56:07.046Z,102056.22
2022-11-13T08:58:53.251Z,102050.69
2022-11-13T09:01:41.075Z,102051.59
2022-11-13T09:04:32.803Z,102053.19
2022-11-13T09:07:27.151Z,102052.63
2022-11-13T09:10:18.348Z,102056.81
2022-11-13T09:13:11.984Z,102052.31
2022-11-13T09:16:18.230Z,102054.03
2022-11-13T09:19:39.108Z,102053.34
2022-11-13T09:24:03.429Z,102054.84
2022-11-13T09:26:48.144Z,102047.47
2022-11-13T09:29:34.212Z,102052.19
2022-11-13T09:32:23.195Z,102046.94
2022-11-13T09:35:09.309Z,102054.00
2022-11-13T09:37:56.601Z,102062.81
2022-11-13T09:40:44.873Z,102048.91
2022-11-13T09:43:49.803Z,102038.22
2022-11-13T09:46:38.364Z,102038.16
2022-11-13T09:49:27.525Z,102042.47
2022-11-13T09:52:14.092Z,102045.94
2022-11-13T09:54:59.209Z,102045.13
2022-11-13T09:57:56.185Z,102045.13
2022-11-13T10:00:41.137Z,102038.09
2022-11-13T10:04:00.733Z,102036.38
2022-11-13T10:06:40.961Z,102038.91
2022-11-13T10:09:47.103Z,102031.59
2022-11-13T10:12:32.311Z,102023.53
2022-11-13T10:15:17.399Z,102029.19
2022-11-13T10:18:04.869Z,102027.44
2022-11-13T10:20:51.007Z,102021.53
2022-11-13T10:23:37.916Z,102016.41
2022-11-13T10:26:24.788Z,102006.47
2022-11-13T10:29:14.251Z,102014.50
2022-11-13T10:32:00.155Z,102002.66
2022-11-13T10:34:50.349Z,102000.16
2022-11-13T10:41:12.393Z,101995.34
2022-11-13T10:44:16.170Z,101996.28
2022-11-13T10:47:48.936Z,101996.28
2022-11-13T10:50:30.432Z,101989.38
2022-11-13T10:53:19.169Z,101985.50
2022-11-13T10:56:21.237Z,101985.47
2022-11-13T10:59:16.887Z,101981.16
2022-11-13T11:02:09.249Z,101977.81
2022-11-13T11:05:06.248Z,101975.81
2022-11-13T11:07:52.054Z,101982.53
2022-11-13T11:10:57.762Z,101972.94
2022-11-13T11:13:43.192Z,101968.38
2022-11-13T11:16:28.299Z,101961.38
2022-11-13T11:19:13.517Z,101958.00
2022-11-13T11:22:02.296Z,101956.22
2022-11-13T11:24:51.747Z,101952.06
2022-11-13T11:27:39.734Z,101953.06
2022-11-13T11:30:26.678Z,101951.22
2022-11-13T11:33:32.657Z,101954.59
2022-11-13T11:44:02.375Z,101939.13
2022-11-13T11:46:51.603Z,101945.03
2022-11-13T11:49:40.297Z,101941.44
2022-11-13T11:52:45.114Z,101949.50
2022-11-13T11:55:49.295Z,101941.19
2022-11-13T11:58:40.222Z,101935.66
2022-11-13T12:01:34.743Z,101936.66
2022-11-13T12:04:24.786Z,101933.22
2022-11-13T12:07:13.317Z,101928.81
2022-11-13T12:10:17.757Z,101934.38
2022-11-13T12:13:09.469Z,101925.41
2022-11-13T12:16:01.035Z,101921.00
2022-11-13T12:18:46.809Z,101917.03
2022-11-13T12:21:40.652Z,101916.84
2022-11-13T12:24:37.227Z,101910.53
2022-11-13T12:27:26.120Z,101912.91
2022-11-13T12:30:16.309Z,101906.22
2022-11-13T12:33:14.181Z,101894.28
2022-11-13T12:35:59.624Z,101890.50
2022-11-13T12:38:54.962Z,101888.03
2022-11-13T12:41:50.519Z,101888.03
2022-11-13T12:44:43.086Z,101888.28
2022-11-13T12:47:28.406Z,101878.56
2022-11-13T12:50:22.117Z,101871.59
2022-11-13T12:53:08.796Z,101866.41
2022-11-13T12:56:00.905Z,101857.25
2022-11-13T12:59:15.453Z,101853.13
2022-11-13T13:02:07.937Z,101853.00
2022-11-13T13:05:12.049Z,101859.81
2022-11-13T13:08:15.829Z,101859.81
2022-11-13T13:11:13.146Z,101856.06
2022-11-13T13:14:06.260Z,101855.13
2022-11-13T13:16:51.669Z,101853.88
2022-11-13T13:19:37.174Z,101845.31
2022-11-13T13:22:27.213Z,101841.59
2022-11-13T13:25:28.028Z,101839.59
2022-11-13T13:28:18.246Z,101835.53
2022-11-13T13:31:03.805Z,101833.97
2022-11-13T13:33:51.828Z,101838.59
2022-11-13T13:36:49.026Z,101841.72
2022-11-13T13:39:52.758Z,101841.00
2022-11-13T13:42:43.743Z,101839.91
2022-11-13T13:45:37.356Z,101840.28
2022-11-13T13:48:24.969Z,101836.75
2022-11-13T13:51:17.613Z,101827.81
2022-11-13T13:54:05.358Z,101827.88
2022-11-13T13:56:50.844Z,101832.88
2022-11-13T13:59:36.702Z,101817.03
2022-11-13T14:02:23.411Z,101819.38
2022-11-13T14:05:24.254Z,101811.09
2022-11-13T14:08:19.526Z,101808.31
2022-11-13T14:11:27.176Z,101809.91
2022-11-13T14:14:16.986Z,101800.34
2022-11-13T14:17:03.931Z,101802.31
2022-11-13T14:19:52.843Z,101799.94
2022-11-13T14:22:38.032Z,101809.53
2022-11-13T14:25:26.326Z,101808.81
2022-11-13T14:28:32.146Z,101816.56
2022-11-13T14:31:17.599Z,101815.06
2022-11-13T14:34:07.479Z,101810.81
2022-11-13T14:36:52.938Z,101807.25
2022-11-13T14:39:38.624Z,101811.63
2022-11-13T14:42:36.777Z,101797.09
2022-11-13T14:45:23.653Z,101796.03
2022-11-13T14:48:19.585Z,101799.53
2022-11-13T14:51:05.689Z,101792.41
2022-11-13T14:54:17.450Z,101792.63
2022-11-13T14:57:12.842Z,101797.13
2022-11-13T14:59:58.021Z,101792.03
2022-11-13T15:02:43.118Z,101795.09
2022-11-13T15:05:28.304Z,101794.75
2022-11-13T15:08:13.711Z,101796.50
2022-11-13T15:10:59.159Z,101801.84
2022-11-13T15:13:44.812Z,101794.09
2022-11-13T15:16:31.396Z,101791.69
2022-11-13T15:19:18.576Z,101789.66
2022-11-13T15:25:19.589Z,101784.91
2022-11-13T15:28:04.961Z,101784.66
2022-11-13T15:30:49.978Z,101789.66
2022-11-13T15:33:35.493Z,101789.75
2022-11-13T15:36:20.490Z,101794.09
2022-11-13T15:39:07.364Z,101791.44
2022-11-13T15:41:54.142Z,101793.22
2022-11-13T15:44:40.851Z,101790.03
2022-11-13T15:47:26.577Z,101793.25
2022-11-13T15:50:14.789Z,101787.28
2022-11-13T15:53:05.064Z,101800.13
2022-11-13T15:55:50.764Z,101788.50
2022-11-13T15:58:35.849Z,101780.72
2022-11-13T16:01:21.131Z,101791.09
2022-11-13T16:04:06.723Z,101785.31
2022-11-13T16:06:51.740Z,101790.94
2022-11-13T16:09:37.308Z,101789.31
2022-11-13T16:12:22.709Z,101792.59
2022-11-13T16:15:07.990Z,101783.63
2022-11-13T16:17:53.833Z,101778.34
2022-11-13T16:20:39.362Z,101782.28
2022-11-13T16:23:24.908Z,101780.44
2022-11-13T16:26:17.728Z,101776.66
2022-11-13T16:29:13.809Z,101777.66
2022-11-13T16:31:59.296Z,101777.47
2022-11-13T16:34:44.398Z,101777.94
2022-11-13T16:37:29.630Z,101776.97
2022-11-13T16:40:20.701Z,101769.75
2022-11-13T16:43:06.382Z,101761.50
2022-11-13T16:45:52.023Z,101764.53
2022-11-13T16:48:37.158Z,101758.34
2022-11-13T16:51:22.741Z,101759.59
2022-11-13T16:54:07.659Z,101759.03
2022-11-13T16:56:53.113Z,101764.13
2022-11-13T16:59:38.454Z,101765.06
2022-11-13T17:02:23.673Z,101756.13
2022-11-13T17:05:13.014Z,101747.19
2022-11-13T17:07:58.991Z,101752.34
2022-11-13T17:10:44.719Z,101744.91
2022-11-13T17:13:30.334Z,101747.63
2022-11-13T17:16:15.877Z,101750.28
2022-11-13T17:19:01.839Z,101746.06
2022-11-13T17:21:47.093Z,101739.06
2022-11-13T17:24:32.355Z,101736.41
2022-11-13T17:27:17.593Z,101737.38
2022-11-13T17:30:02.740Z,101746.78
2022-11-13T17:32:47.795Z,101739.88
2022-11-13T17:35:32.724Z,101741.84
2022-11-13T17:38:17.971Z,101739.09
2022-11-13T17:41:07.374Z,101731.88
2022-11-13T17:43:55.658Z,101735.25
2022-11-13T17:46:44.989Z,101736.25
2022-11-13T17:49:30.184Z,101737.75
2022-11-13T17:52:15.566Z,101745.94
2022-11-13T17:55:01.299Z,101748.47
2022-11-13T17:57:46.412Z,101745.59
2022-11-13T18:00:31.702Z,101741.63
2022-11-13T18:03:17.174Z,101736.94
2022-11-13T18:06:09.655Z,101734.34
2022-11-13T18:08:55.160Z,101723.50
2022-11-13T18:11:40.654Z,101729.66
2022-11-13T18:14:26.201Z,101727.25
2022-11-13T18:17:11.415Z,101728.91
2022-11-13T18:20:01.465Z,101732.44
2022-11-13T18:22:47.500Z,101729.22
2022-11-13T18:25:38.493Z,101736.16
2022-11-13T18:28:24.919Z,101728.97
2022-11-13T18:31:12.329Z,101731.41
2022-11-13T18:33:58.689Z,101726.19
2022-11-13T18:36:44.278Z,101735.81
2022-11-13T18:39:29.456Z,101730.47
2022-11-13T18:42:14.608Z,101734.84
2022-11-13T18:45:05.475Z,101737.69
2022-11-13T18:47:51.433Z,101732.56
2022-11-13T18:50:38.564Z,101723.91
2022-11-13T18:53:23.850Z,101729.63
2022-11-13T18:56:10.860Z,101727.28
2022-11-13T18:58:56.561Z,101722.81
2022-11-13T19:01:42.405Z,101715.31
2022-11-13T19:04:27.584Z,101717.97
2022-11-13T19:07:13.275Z,101724.75
2022-11-13T19:09:58.894Z,101713.94
2022-11-13T19:12:44.083Z,101710.72
2022-11-13T19:15:29.317Z,101717.81
2022-11-13T19:18:14.651Z,101716.22
2022-11-13T19:21:03.983Z,101710.03
2022-11-13T19:23:49.265Z,101709.88
2022-11-13T19:26:34.967Z,101713.50
2022-11-13T19:29:20.575Z,101713.94
2022-11-13T19:32:06.580Z,101713.88
2022-11-13T19:34:52.041Z,101713.63
2022-11-13T19:37:37.522Z,101720.63
2022-11-13T19:40:23.110Z,101719.72
2022-11-13T19:43:08.366Z,101716.97
2022-11-13T19:45:53.865Z,101720.41
2022-11-13T19:48:40.274Z,101718.75
2022-11-13T19:51:26.434Z,101717.72
2022-11-13T19:54:12.003Z,101720.22
2022-11-13T19:57:00.311Z,101710.22
2022-11-13T20:00:23.195Z,101712.03
2022-11-13T20:07:09.769Z,101720.97
2022-11-13T20:09:55.075Z,101708.91
2022-11-13T20:12:41.774Z,101710.09
2022-11-13T20:15:27.154Z,101706.00
2022-11-13T20:18:14.275Z,101703.28
2022-11-13T20:21:10.444Z,101707.59
2022-11-13T20:24:02.423Z,101699.94
2022-11-13T20:26:48.109Z,101701.97
2022-11-13T20:29:33.152Z,101712.78
2022-11-13T20:32:21.614Z,101706.47
2022-11-13T20:35:07.998Z,101692.19
2022-11-13T20:37:53.581Z,101693.03
2022-11-13T20:40:38.859Z,101697.34
2022-11-13T20:43:24.548Z,101691.72
2022-11-13T20:46:12.533Z,101694.38
2022-11-13T20:48:57.789Z,101693.38
2022-11-13T20:51:51.472Z,101697.81
2022-11-13T20:54:39.882Z,101694.97
2022-11-13T20:57:25.052Z,101696.84
2022-11-13T21:00:10.464Z,101701.69
2022-11-13T21:02:59.207Z,101698.81
2022-11-13T21:05:44.760Z,101700.34
2022-11-13T21:08:30.469Z,101694.38
2022-11-13T21:11:19.094Z,101699.66
2022-11-13T21:14:04.411Z,101701.56
2022-11-13T21:16:49.904Z,101689.19
2022-11-13T21:19:35.426Z,101694.44
2022-11-13T21:22:20.845Z,101693.66
2022-11-13T21:25:08.175Z,101696.56
2022-11-13T21:27:55.867Z,101689.41
2022-11-13T21:30:41.834Z,101686.34
2022-11-13T21:33:27.499Z,101687.88
2022-11-13T21:36:14.132Z,101685.97
2022-11-13T21:38:59.533Z,101682.38
2022-11-13T21:41:45.273Z,101679.09
2022-11-13T21:44:33.872Z,101680.78
2022-11-13T21:47:18.977Z,101672.03
2022-11-13T21:50:07.527Z,101676.97
2022-11-13T21:52:52.701Z,101673.00
2022-11-13T21:55:38.343Z,101666.53
2022-11-13T21:58:33.895Z,101674.09
2022-11-13T22:01:19.166Z,101667.41
2022-11-13T22:04:04.863Z,101667.25
2022-11-13T22:06:50.710Z,101659.47
2022-11-13T22:09:38.301Z,101662.91
2022-11-13T22:12:23.832Z,101656.97
2022-11-13T22:15:10.163Z,101654.81
2022-11-13T22:17:55.416Z,101654.13
2022-11-13T22:20:41.940Z,101650.38
2022-11-13T22:23:27.569Z,101664.78
2022-11-13T22:26:13.863Z,101652.38
2022-11-13T22:28:59.816Z,101649.47
2022-11-13T22:31:45.220Z,101648.66
2022-11-13T22:34:30.777Z,101646.75
2022-11-13T22:37:16.309Z,101641.47
2022-11-13T22:40:01.924Z,101637.13
2022-11-13T22:42:47.843Z,101635.59
2022-11-13T22:45:33.604Z,101625.41
2022-11-13T22:48:22.887Z,101628.00
2022-11-13T22:51:10.021Z,101626.78
2022-11-13T22:53:59.447Z,101627.53
2022-11-13T22:56:47.189Z,101622.16
2022-11-13T22:59:39.905Z,101617.91
2022-11-13T23:02:30.471Z,101619.53
2022-11-13T23:08:15.587Z,101612.19
2022-11-13T23:11:01.255Z,101606.75
2022-11-13T23:13:47.796Z,101609.69
2022-11-13T23:16:33.937Z,101597.22
2022-11-13T23:19:19.394Z,101596.00
2022-11-13T23:22:05.200Z,101598.78
2022-11-13T23:24:50.892Z,101588.28
2022-11-13T23:27:36.475Z,101593.00
2022-11-13T23:30:22.157Z,101594.50
2022-11-13T23:33:14.125Z,101593.38
2022-11-13T23:36:14.933Z,101581.53
2022-11-13T23:39:01.028Z,101584.31
2022-11-13T23:41:48.813Z,101581.66
2022-11-13T23:44:40.426Z,101577.63
2022-11-13T23:47:31.399Z,101578.91
2022-11-13T23:50:16.825Z,101587.81
2022-11-13T23:53:08.149Z,101584.59
2022-11-13T23:56:00.845Z,101580.06
2022-11-13T23:58:46.648Z,101581.25
